Aérodrome :
LOGIN :

S'inscrire | Disclaimer

   EN    FR    IT 

 










Légende :    VFR   VFR Marginal   IFR   IFR Intensif   IFR Très Intensif
Visi : 
Plafond : 
>= 8 km
>= 3000ft
5 à 8 km
1000 à 3000 ft
1500m à 5 km
500 à 1000 ft
800 à 1500m
200 à 500 ft
< 800m
< 200 ft
Symboles :   Orages  Brouillard  Fortes neiges  Fortes précipitations  Vent > 20 kt
SIGMETs :   Divers  Orages  Givrage  Turbulence  Onde Orograph.  Cendres Volcan.






- Altitude de l'aérodrome : 461 ft
- Code IATA : WIE


ETOU - Wiesbaden Army

DERNIER METAR :
  • 220301Z AUTO 33004KT 9999 SCT028 06/02 A3014 RMK AO2 SLP210 $

METARs EXPIRÉS :
  • 220206Z AUTO 36003KT 9999 BKN027 07/03 A3013 RMK AO2 BKN V FEW SLP206 $
  • 220156Z AUTO 01005KT 9999 FEW027 07/03 A3012 RMK AO2 SLP203 T00740025 $
  • 220056Z AUTO 35003KT 9999 CLR 08/03 A3010 RMK AO2 SLP196 T00840034 $

TAF TAF ETOU
Valide du 21 à 20h jusqu'au 23 à 02h UTC


212000Z 2120/2302 34009KT 9999 FEW035 QNH3002INS TX13/2215Z TN03/2205Z



MET'MAP, la Météo Aéronautique d'un coup d'oeil ! - Copyright ORBIFLY Décembre 2007 - Disclaimer

ORBIFLY MET'MAP TEAM :

Programmation & Développement : Alexandra Zaïnal
Sur une idée originale de : Baudouin d'Aumeries
Assistance à la programmation : Marc-Olivier Méhu
Soutien technique & logistique : Manuel Goepfert

Contact : metmap@orbifly.com




SOURCES & CREDITS :

   NOAA